createdAt,value
2018-12-23T00:01:50.056Z,100.00
2018-12-23T00:16:52.629Z,100.00
2018-12-23T00:31:56.241Z,100.00
2018-12-23T00:46:59.934Z,100.00
2018-12-23T01:02:04.208Z,100.00
2018-12-23T01:17:07.046Z,100.00
2018-12-23T01:32:10.265Z,100.00
2018-12-23T01:47:12.982Z,100.00
2018-12-23T02:02:15.556Z,100.00
2018-12-23T02:17:18.400Z,100.00
2018-12-23T02:32:21.222Z,100.00
2018-12-23T02:47:25.168Z,100.00
2018-12-23T03:02:29.563Z,100.00
2018-12-23T03:17:33.144Z,100.00
2018-12-23T03:32:38.183Z,91.31
2018-12-23T03:47:41.028Z,82.60
2018-12-23T04:02:44.320Z,85.15
2018-12-23T04:17:47.681Z,82.82
2018-12-23T04:32:53.635Z,87.55
2018-12-23T04:47:57.539Z,85.08
2018-12-23T05:03:00.495Z,82.83
2018-12-23T05:18:03.056Z,83.29
2018-12-23T05:33:05.613Z,80.70
2018-12-23T05:48:08.471Z,79.76
2018-12-23T06:03:11.068Z,83.00
2018-12-23T06:18:15.116Z,82.87
2018-12-23T06:33:20.677Z,89.20
2018-12-23T06:48:23.232Z,85.59
2018-12-23T07:03:25.776Z,75.60
2018-12-23T07:18:31.746Z,80.05
2018-12-23T07:33:34.292Z,78.39
2018-12-23T07:48:36.838Z,79.78
2018-12-23T08:03:39.393Z,75.36
2018-12-23T08:18:42.777Z,60.83
2018-12-23T08:33:45.630Z,51.39
2018-12-23T08:48:49.122Z,50.90
2018-12-23T09:03:51.673Z,48.96
2018-12-23T09:18:54.547Z,37.67
2018-12-23T09:33:58.028Z,55.13
2018-12-23T09:49:02.217Z,57.52
2018-12-23T10:04:05.498Z,51.41
2018-12-23T10:19:08.059Z,44.00
2018-12-23T10:34:10.935Z,47.24
2018-12-23T10:49:13.506Z,43.46
2018-12-23T11:04:16.451Z,43.48
2018-12-23T11:19:20.532Z,53.60
2018-12-23T11:34:23.498Z,64.43
2018-12-23T11:49:26.287Z,65.71
2018-12-23T12:04:30.498Z,68.25
2018-12-23T12:19:34.101Z,67.24
2018-12-23T12:34:36.653Z,69.55
2018-12-23T12:49:39.813Z,70.87
2018-12-23T13:04:43.286Z,72.84
2018-12-23T13:19:46.141Z,74.55
2018-12-23T13:34:49.007Z,71.45
2018-12-23T14:21:08.204Z,69.30
2018-12-23T14:36:11.043Z,69.28
2018-12-23T14:51:14.395Z,70.63
2018-12-23T15:06:17.281Z,69.97
2018-12-23T15:21:20.170Z,68.00
2018-12-23T15:36:24.449Z,69.03
2018-12-23T15:51:27.072Z,69.10
2018-12-23T16:06:30.693Z,69.76
2018-12-23T16:21:33.594Z,71.16
2018-12-23T16:36:37.297Z,73.65
2018-12-23T16:51:40.131Z,75.61
2018-12-23T17:06:42.746Z,76.08
2018-12-23T17:21:45.923Z,77.54
2018-12-23T17:36:48.752Z,77.61
2018-12-23T17:51:51.915Z,76.78
2018-12-23T18:06:54.503Z,75.73
2018-12-23T18:21:57.300Z,74.79
2018-12-23T18:37:01.026Z,76.46
2018-12-23T18:52:03.811Z,78.58
2018-12-23T19:07:06.389Z,81.97
2018-12-23T19:22:17.434Z,84.52
2018-12-23T19:37:32.021Z,86.39
2018-12-23T19:52:48.615Z,86.42
2018-12-23T20:08:01.723Z,85.01
2018-12-23T20:23:19.589Z,86.61
2018-12-23T20:38:27.238Z,89.11
2018-12-23T21:09:22.714Z,99.27
2018-12-23T21:24:38.153Z,98.21
2018-12-23T21:39:52.501Z,99.34
2018-12-23T22:11:01.814Z,100.00
2018-12-23T22:26:04.378Z,100.00
2018-12-23T22:41:06.940Z,100.00
2018-12-23T22:56:11.398Z,100.00
2018-12-23T23:11:16.187Z,100.00
2018-12-23T23:26:22.110Z,100.00
2018-12-23T23:41:24.669Z,100.00
2018-12-23T23:56:27.629Z,98.50
